N974TA KBUR-KLAX
Flight info
| Callsign | N974TA |
|---|---|
| Flight time | N/A |
| Altitude | 5000 |
| Route | |
| Aircraft | BE35/L-DOV/C |
Departure
| Time | 2026-05-06 04:03 |
|---|---|
| Airport | Hollywood Burbank/Bob Hope Airport (KBUR) |
Arrival
| Time | N/A |
|---|---|
| Airport | Los Angeles International Airport (KLAX) |
| Time | Latitude | Longitude | Altitude | Speed | Heading |
|---|---|---|---|---|---|
| 2026-05-06 03:36 | 34.19644 | -118.36595 | 726 ft | 0 kts | 69° |
| 2026-05-06 03:45 | 34.19644 | -118.36593 | 726 ft | 2 kts | 67° |
| 2026-05-06 03:45 | 34.19646 | -118.36587 | 726 ft | 0 kts | 67° |
| 2026-05-06 03:46 | 34.19653 | -118.36557 | 726 ft | 5 kts | 67° |
| 2026-05-06 03:46 | 34.19663 | -118.36548 | 725 ft | 0 kts | 357° |
| 2026-05-06 04:00 | 34.19664 | -118.36548 | 725 ft | 4 kts | 356° |
| 2026-05-06 04:00 | 34.19699 | -118.36586 | 726 ft | 13 kts | 255° |
| 2026-05-06 04:00 | 34.19695 | -118.36858 | 732 ft | 29 kts | 282° |
| 2026-05-06 04:01 | 34.19708 | -118.36892 | 732 ft | 3 kts | 325° |
| 2026-05-06 04:01 | 34.19792 | -118.36877 | 731 ft | 2 kts | 78° |
| 2026-05-06 04:01 | 34.19792 | -118.36872 | 731 ft | 0 kts | 89° |
| 2026-05-06 04:02 | 34.19788 | -118.36777 | 728 ft | 50 kts | 94° |
| 2026-05-06 04:02 | 34.19771 | -118.36014 | 726 ft | 125 kts | 90° |
| 2026-05-06 04:02 | 34.19795 | -118.34842 | 952 ft | 158 kts | 91° |
| 2026-05-06 04:02 | 34.19816 | -118.33345 | 1046 ft | 191 kts | 89° |
| 2026-05-06 04:03 | 34.19880 | -118.31671 | 1247 ft | 207 kts | 89° |
| 2026-05-06 04:03 | 34.19620 | -118.30053 | 1798 ft | 195 kts | 118° |
| 2026-05-06 04:03 | 34.18896 | -118.28553 | 1713 ft | 221 kts | 122° |
| 2026-05-06 04:03 | 34.18127 | -118.26918 | 1962 ft | 225 kts | 119° |
| 2026-05-06 04:04 | 34.17392 | -118.25242 | 2220 ft | 226 kts | 118° |
| 2026-05-06 04:04 | 34.16585 | -118.23611 | 2473 ft | 226 kts | 134° |
| 2026-05-06 04:04 | 34.15469 | -118.22334 | 2902 ft | 216 kts | 120° |
| 2026-05-06 04:04 | 34.14762 | -118.20762 | 3335 ft | 213 kts | 114° |
| 2026-05-06 04:05 | 34.14290 | -118.19082 | 3763 ft | 210 kts | 108° |
| 2026-05-06 04:05 | 34.13854 | -118.17400 | 4216 ft | 209 kts | 107° |
| 2026-05-06 04:05 | 34.13434 | -118.15683 | 4516 ft | 216 kts | 104° |
| 2026-05-06 04:05 | 34.13030 | -118.14100 | 4745 ft | 222 kts | 109° |
| 2026-05-06 04:06 | 34.12521 | -118.12330 | 4916 ft | 230 kts | 109° |
| 2026-05-06 04:06 | 34.12175 | -118.11101 | 4965 ft | 236 kts | 109° |